sensor_id;sensor_type;location;lat;lon;timestamp;P1;durP1;ratioP1;P2;durP2;ratioP2
3911;SDS011;1971;51.778;10.330;2022-07-04T00:01:45;2.00;;;1.90;;
3911;SDS011;1971;51.778;10.330;2022-07-04T00:04:15;3.57;;;2.13;;
3911;SDS011;1971;51.778;10.330;2022-07-04T00:06:45;3.40;;;2.00;;
3911;SDS011;1971;51.778;10.330;2022-07-04T00:09:15;2.17;;;1.93;;
3911;SDS011;1971;51.778;10.330;2022-07-04T00:11:45;2.23;;;2.13;;
3911;SDS011;1971;51.778;10.330;2022-07-04T00:14:16;2.10;;;1.90;;
3911;SDS011;1971;51.778;10.330;2022-07-04T00:16:49;2.50;;;2.03;;
3911;SDS011;1971;51.778;10.330;2022-07-04T00:19:19;1.53;;;1.43;;
3911;SDS011;1971;51.778;10.330;2022-07-04T00:21:49;1.90;;;1.80;;
3911;SDS011;1971;51.778;10.330;2022-07-04T00:24:22;1.57;;;1.50;;
3911;SDS011;1971;51.778;10.330;2022-07-04T00:26:52;2.17;;;1.97;;
3911;SDS011;1971;51.778;10.330;2022-07-04T00:29:22;1.73;;;1.63;;
3911;SDS011;1971;51.778;10.330;2022-07-04T00:31:55;2.47;;;1.73;;
3911;SDS011;1971;51.778;10.330;2022-07-04T00:34:25;2.63;;;1.90;;
3911;SDS011;1971;51.778;10.330;2022-07-04T00:36:55;2.00;;;1.60;;
3911;SDS011;1971;51.778;10.330;2022-07-04T00:39:26;2.00;;;1.40;;
3911;SDS011;1971;51.778;10.330;2022-07-04T00:41:56;1.77;;;1.67;;
3911;SDS011;1971;51.778;10.330;2022-07-04T00:44:26;1.80;;;1.70;;
3911;SDS011;1971;51.778;10.330;2022-07-04T00:46:59;1.67;;;1.57;;
3911;SDS011;1971;51.778;10.330;2022-07-04T00:49:29;2.90;;;1.70;;
3911;SDS011;1971;51.778;10.330;2022-07-04T00:51:59;1.93;;;1.73;;
3911;SDS011;1971;51.778;10.330;2022-07-04T00:54:31;1.83;;;1.67;;
3911;SDS011;1971;51.778;10.330;2022-07-04T00:57:01;2.00;;;1.90;;
3911;SDS011;1971;51.778;10.330;2022-07-04T00:59:34;2.80;;;1.90;;
3911;SDS011;1971;51.778;10.330;2022-07-04T01:02:07;2.73;;;1.50;;
3911;SDS011;1971;51.778;10.330;2022-07-04T01:04:38;2.53;;;1.83;;
3911;SDS011;1971;51.778;10.330;2022-07-04T01:07:10;2.00;;;1.80;;
3911;SDS011;1971;51.778;10.330;2022-07-04T01:09:41;2.07;;;1.87;;
3911;SDS011;1971;51.778;10.330;2022-07-04T01:12:11;2.00;;;1.60;;
3911;SDS011;1971;51.778;10.330;2022-07-04T01:14:53;2.30;;;2.10;;
3911;SDS011;1971;51.778;10.330;2022-07-04T01:17:26;1.93;;;1.73;;
3911;SDS011;1971;51.778;10.330;2022-07-04T01:19:56;2.00;;;1.90;;
3911;SDS011;1971;51.778;10.330;2022-07-04T01:22:29;1.87;;;1.70;;
3911;SDS011;1971;51.778;10.330;2022-07-04T01:24:59;2.40;;;1.60;;
3911;SDS011;1971;51.778;10.330;2022-07-04T01:27:29;2.87;;;1.70;;
3911;SDS011;1971;51.778;10.330;2022-07-04T01:29:59;1.60;;;1.50;;
3911;SDS011;1971;51.778;10.330;2022-07-04T01:32:30;4.73;;;2.30;;
3911;SDS011;1971;51.778;10.330;2022-07-04T01:34:59;2.70;;;1.80;;
3911;SDS011;1971;51.778;10.330;2022-07-04T01:37:32;1.73;;;1.63;;
3911;SDS011;1971;51.778;10.330;2022-07-04T01:40:03;1.77;;;1.67;;
3911;SDS011;1971;51.778;10.330;2022-07-04T01:42:34;3.20;;;1.97;;
3911;SDS011;1971;51.778;10.330;2022-07-04T01:45:05;2.07;;;1.90;;
3911;SDS011;1971;51.778;10.330;2022-07-04T01:47:36;1.87;;;1.57;;
3911;SDS011;1971;51.778;10.330;2022-07-04T01:50:07;2.97;;;1.67;;
3911;SDS011;1971;51.778;10.330;2022-07-04T01:52:41;5.33;;;1.93;;
3911;SDS011;1971;51.778;10.330;2022-07-04T01:55:12;3.00;;;1.70;;
3911;SDS011;1971;51.778;10.330;2022-07-04T01:57:42;1.50;;;1.40;;
3911;SDS011;1971;51.778;10.330;2022-07-04T02:00:12;2.00;;;1.50;;
3911;SDS011;1971;51.778;10.330;2022-07-04T02:02:55;4.43;;;2.00;;
3911;SDS011;1971;51.778;10.330;2022-07-04T02:05:26;1.40;;;1.30;;
3911;SDS011;1971;51.778;10.330;2022-07-04T02:07:59;2.00;;;1.80;;
3911;SDS011;1971;51.778;10.330;2022-07-04T02:10:29;1.80;;;1.70;;
3911;SDS011;1971;51.778;10.330;2022-07-04T02:12:59;2.30;;;1.60;;
3911;SDS011;1971;51.778;10.330;2022-07-04T02:15:30;2.40;;;1.70;;
3911;SDS011;1971;51.778;10.330;2022-07-04T02:18:02;2.87;;;1.30;;
3911;SDS011;1971;51.778;10.330;2022-07-04T02:20:34;1.60;;;1.50;;
3911;SDS011;1971;51.778;10.330;2022-07-04T02:23:07;1.77;;;1.67;;
3911;SDS011;1971;51.778;10.330;2022-07-04T02:25:37;1.60;;;1.50;;
3911;SDS011;1971;51.778;10.330;2022-07-04T02:28:07;1.40;;;1.30;;
3911;SDS011;1971;51.778;10.330;2022-07-04T02:30:37;1.33;;;1.27;;
3911;SDS011;1971;51.778;10.330;2022-07-04T02:33:08;2.00;;;1.33;;
3911;SDS011;1971;51.778;10.330;2022-07-04T02:35:39;1.87;;;1.10;;
3911;SDS011;1971;51.778;10.330;2022-07-04T02:38:12;3.40;;;1.70;;
3911;SDS011;1971;51.778;10.330;2022-07-04T02:40:42;1.60;;;1.50;;
3911;SDS011;1971;51.778;10.330;2022-07-04T02:43:12;1.20;;;1.20;;
3911;SDS011;1971;51.778;10.330;2022-07-04T02:45:42;3.77;;;1.70;;
3911;SDS011;1971;51.778;10.330;2022-07-04T02:48:13;1.53;;;1.43;;
3911;SDS011;1971;51.778;10.330;2022-07-04T02:50:43;1.60;;;1.50;;
3911;SDS011;1971;51.778;10.330;2022-07-04T02:53:16;1.40;;;1.30;;
3911;SDS011;1971;51.778;10.330;2022-07-04T02:55:46;1.33;;;1.23;;
3911;SDS011;1971;51.778;10.330;2022-07-04T02:58:16;1.40;;;1.30;;
3911;SDS011;1971;51.778;10.330;2022-07-04T03:00:46;1.20;;;1.10;;
3911;SDS011;1971;51.778;10.330;2022-07-04T03:03:16;1.33;;;1.10;;
3911;SDS011;1971;51.778;10.330;2022-07-04T03:05:46;1.43;;;1.33;;
3911;SDS011;1971;51.778;10.330;2022-07-04T03:08:19;1.37;;;1.30;;
3911;SDS011;1971;51.778;10.330;2022-07-04T03:10:50;3.20;;;1.50;;
3911;SDS011;1971;51.778;10.330;2022-07-04T03:13:20;3.43;;;1.40;;
3911;SDS011;1971;51.778;10.330;2022-07-04T03:15:51;1.33;;;1.30;;
3911;SDS011;1971;51.778;10.330;2022-07-04T03:18:21;1.60;;;1.50;;
3911;SDS011;1971;51.778;10.330;2022-07-04T03:20:51;1.60;;;1.40;;
3911;SDS011;1971;51.778;10.330;2022-07-04T03:23:24;1.60;;;1.50;;
3911;SDS011;1971;51.778;10.330;2022-07-04T03:25:54;1.73;;;1.10;;
3911;SDS011;1971;51.778;10.330;2022-07-04T03:28:24;1.90;;;1.20;;
3911;SDS011;1971;51.778;10.330;2022-07-04T03:30:55;1.20;;;1.10;;
3911;SDS011;1971;51.778;10.330;2022-07-04T03:33:25;3.93;;;1.90;;
3911;SDS011;1971;51.778;10.330;2022-07-04T03:35:55;1.47;;;1.37;;
3911;SDS011;1971;51.778;10.330;2022-07-04T03:38:27;2.10;;;1.40;;
3911;SDS011;1971;51.778;10.330;2022-07-04T03:41:00;1.63;;;1.53;;
3911;SDS011;1971;51.778;10.330;2022-07-04T03:43:30;1.77;;;1.67;;
3911;SDS011;1971;51.778;10.330;2022-07-04T03:46:00;1.60;;;1.50;;
3911;SDS011;1971;51.778;10.330;2022-07-04T03:48:31;1.50;;;1.40;;
3911;SDS011;1971;51.778;10.330;2022-07-04T03:51:02;1.70;;;1.60;;
3911;SDS011;1971;51.778;10.330;2022-07-04T03:53:35;2.10;;;1.63;;
3911;SDS011;1971;51.778;10.330;2022-07-04T03:56:05;2.53;;;1.60;;
3911;SDS011;1971;51.778;10.330;2022-07-04T03:58:36;3.07;;;2.20;;
3911;SDS011;1971;51.778;10.330;2022-07-04T04:01:05;3.33;;;2.30;;
3911;SDS011;1971;51.778;10.330;2022-07-04T04:03:36;1.40;;;1.30;;
3911;SDS011;1971;51.778;10.330;2022-07-04T04:09:09;1.43;;;1.33;;
3911;SDS011;1971;51.778;10.330;2022-07-04T04:11:43;2.63;;;1.53;;
3911;SDS011;1971;51.778;10.330;2022-07-04T04:14:13;1.30;;;1.20;;
3911;SDS011;1971;51.778;10.330;2022-07-04T04:16:43;2.87;;;1.33;;
3911;SDS011;1971;51.778;10.330;2022-07-04T04:19:14;1.83;;;1.40;;
3911;SDS011;1971;51.778;10.330;2022-07-04T04:21:43;2.17;;;1.93;;
3911;SDS011;1971;51.778;10.330;2022-07-04T04:24:16;1.93;;;1.83;;
3911;SDS011;1971;51.778;10.330;2022-07-04T04:26:46;4.27;;;1.60;;
3911;SDS011;1971;51.778;10.330;2022-07-04T04:29:16;2.00;;;1.53;;
3911;SDS011;1971;51.778;10.330;2022-07-04T04:31:46;1.60;;;1.50;;
3911;SDS011;1971;51.778;10.330;2022-07-04T04:34:17;2.10;;;1.97;;
3911;SDS011;1971;51.778;10.330;2022-07-04T04:36:47;1.77;;;1.67;;
3911;SDS011;1971;51.778;10.330;2022-07-04T04:39:19;4.27;;;1.70;;
3911;SDS011;1971;51.778;10.330;2022-07-04T04:41:49;2.07;;;1.97;;
3911;SDS011;1971;51.778;10.330;2022-07-04T04:44:20;1.97;;;1.80;;
3911;SDS011;1971;51.778;10.330;2022-07-04T04:46:50;4.23;;;2.50;;
3911;SDS011;1971;51.778;10.330;2022-07-04T04:49:20;2.10;;;1.83;;
3911;SDS011;1971;51.778;10.330;2022-07-04T04:51:50;2.40;;;2.20;;
3911;SDS011;1971;51.778;10.330;2022-07-04T04:54:22;3.07;;;2.37;;
3911;SDS011;1971;51.778;10.330;2022-07-04T04:56:52;2.80;;;2.37;;
3911;SDS011;1971;51.778;10.330;2022-07-04T04:59:23;2.20;;;2.00;;
3911;SDS011;1971;51.778;10.330;2022-07-04T05:01:53;2.30;;;2.10;;
3911;SDS011;1971;51.778;10.330;2022-07-04T05:04:23;2.50;;;2.13;;
3911;SDS011;1971;51.778;10.330;2022-07-04T05:06:53;3.53;;;1.93;;
3911;SDS011;1971;51.778;10.330;2022-07-04T05:09:26;2.00;;;1.90;;
3911;SDS011;1971;51.778;10.330;2022-07-04T05:11:56;2.03;;;1.93;;
3911;SDS011;1971;51.778;10.330;2022-07-04T05:14:26;2.23;;;2.13;;
3911;SDS011;1971;51.778;10.330;2022-07-04T05:16:57;1.97;;;1.87;;
3911;SDS011;1971;51.778;10.330;2022-07-04T05:19:27;2.70;;;2.50;;
3911;SDS011;1971;51.778;10.330;2022-07-04T05:21:57;2.50;;;1.70;;
3911;SDS011;1971;51.778;10.330;2022-07-04T05:24:30;1.67;;;1.57;;
3911;SDS011;1971;51.778;10.330;2022-07-04T05:27:06;1.67;;;1.57;;
3911;SDS011;1971;51.778;10.330;2022-07-04T05:29:37;2.70;;;2.07;;
3911;SDS011;1971;51.778;10.330;2022-07-04T05:32:08;2.10;;;1.87;;
3911;SDS011;1971;51.778;10.330;2022-07-04T05:34:38;2.93;;;2.00;;
3911;SDS011;1971;51.778;10.330;2022-07-04T05:37:08;1.70;;;1.60;;
3911;SDS011;1971;51.778;10.330;2022-07-04T05:39:41;2.13;;;1.53;;
3911;SDS011;1971;51.778;10.330;2022-07-04T05:42:10;1.80;;;1.70;;
3911;SDS011;1971;51.778;10.330;2022-07-04T05:44:40;3.63;;;2.07;;
3911;SDS011;1971;51.778;10.330;2022-07-04T05:47:11;3.00;;;2.70;;
3911;SDS011;1971;51.778;10.330;2022-07-04T05:49:41;1.70;;;1.60;;
3911;SDS011;1971;51.778;10.330;2022-07-04T05:52:11;1.87;;;1.67;;
3911;SDS011;1971;51.778;10.330;2022-07-04T05:54:44;3.23;;;3.03;;
3911;SDS011;1971;51.778;10.330;2022-07-04T05:57:15;2.90;;;2.00;;
3911;SDS011;1971;51.778;10.330;2022-07-04T05:59:45;1.83;;;1.73;;
3911;SDS011;1971;51.778;10.330;2022-07-04T06:02:15;4.57;;;1.87;;
3911;SDS011;1971;51.778;10.330;2022-07-04T06:04:45;5.27;;;2.33;;
3911;SDS011;1971;51.778;10.330;2022-07-04T06:07:15;2.57;;;2.00;;
3911;SDS011;1971;51.778;10.330;2022-07-04T06:09:47;4.43;;;2.17;;
3911;SDS011;1971;51.778;10.330;2022-07-04T06:12:18;1.97;;;1.87;;
3911;SDS011;1971;51.778;10.330;2022-07-04T06:14:47;2.10;;;1.90;;
3911;SDS011;1971;51.778;10.330;2022-07-04T06:17:17;2.83;;;2.23;;
3911;SDS011;1971;51.778;10.330;2022-07-04T06:19:47;2.63;;;2.47;;
3911;SDS011;1971;51.778;10.330;2022-07-04T06:22:17;2.70;;;2.50;;
3911;SDS011;1971;51.778;10.330;2022-07-04T06:24:53;3.03;;;2.83;;
3911;SDS011;1971;51.778;10.330;2022-07-04T06:27:23;2.67;;;2.57;;
3911;SDS011;1971;51.778;10.330;2022-07-04T06:29:55;2.70;;;2.50;;
3911;SDS011;1971;51.778;10.330;2022-07-04T06:32:25;2.73;;;2.53;;
3911;SDS011;1971;51.778;10.330;2022-07-04T06:34:55;2.60;;;2.40;;
3911;SDS011;1971;51.778;10.330;2022-07-04T06:37:37;3.87;;;2.50;;
3911;SDS011;1971;51.778;10.330;2022-07-04T06:40:10;2.20;;;2.00;;
3911;SDS011;1971;51.778;10.330;2022-07-04T06:42:40;2.67;;;2.47;;
3911;SDS011;1971;51.778;10.330;2022-07-04T06:45:10;2.20;;;2.00;;
3911;SDS011;1971;51.778;10.330;2022-07-04T06:47:41;2.13;;;2.03;;
3911;SDS011;1971;51.778;10.330;2022-07-04T06:50:11;2.57;;;2.40;;
3911;SDS011;1971;51.778;10.330;2022-07-04T06:53:01;2.40;;;2.30;;
3911;SDS011;1971;51.778;10.330;2022-07-04T06:55:35;2.53;;;2.33;;
3911;SDS011;1971;51.778;10.330;2022-07-04T06:58:06;2.17;;;2.07;;
3911;SDS011;1971;51.778;10.330;2022-07-04T07:00:39;2.10;;;2.00;;
3911;SDS011;1971;51.778;10.330;2022-07-04T07:03:09;1.80;;;1.70;;
3911;SDS011;1971;51.778;10.330;2022-07-04T07:05:40;2.03;;;1.57;;
3911;SDS011;1971;51.778;10.330;2022-07-04T07:08:27;2.43;;;1.83;;
3911;SDS011;1971;51.778;10.330;2022-07-04T07:11:00;2.30;;;1.60;;
3911;SDS011;1971;51.778;10.330;2022-07-04T07:13:40;1.77;;;1.67;;
3911;SDS011;1971;51.778;10.330;2022-07-04T07:16:10;2.20;;;2.00;;
3911;SDS011;1971;51.778;10.330;2022-07-04T07:18:42;1.83;;;1.73;;
3911;SDS011;1971;51.778;10.330;2022-07-04T07:21:13;2.20;;;2.00;;
3911;SDS011;1971;51.778;10.330;2022-07-04T07:23:43;1.60;;;1.50;;
3911;SDS011;1971;51.778;10.330;2022-07-04T07:26:15;2.80;;;1.97;;
3911;SDS011;1971;51.778;10.330;2022-07-04T07:28:45;1.70;;;1.60;;
3911;SDS011;1971;51.778;10.330;2022-07-04T07:31:15;1.67;;;1.57;;
3911;SDS011;1971;51.778;10.330;2022-07-04T07:33:45;2.17;;;1.97;;
3911;SDS011;1971;51.778;10.330;2022-07-04T07:36:15;1.63;;;1.53;;
3911;SDS011;1971;51.778;10.330;2022-07-04T07:38:45;1.70;;;1.60;;
3911;SDS011;1971;51.778;10.330;2022-07-04T07:41:18;2.40;;;1.37;;
3911;SDS011;1971;51.778;10.330;2022-07-04T07:43:48;2.97;;;1.63;;
3911;SDS011;1971;51.778;10.330;2022-07-04T07:46:18;1.47;;;1.20;;
3911;SDS011;1971;51.778;10.330;2022-07-04T07:48:48;2.10;;;1.80;;
3911;SDS011;1971;51.778;10.330;2022-07-04T07:51:18;1.57;;;1.50;;
3911;SDS011;1971;51.778;10.330;2022-07-04T07:53:48;1.53;;;1.20;;
3911;SDS011;1971;51.778;10.330;2022-07-04T07:56:41;2.00;;;1.20;;
3911;SDS011;1971;51.778;10.330;2022-07-04T07:59:12;1.47;;;1.40;;
3911;SDS011;1971;51.778;10.330;2022-07-04T08:01:42;1.50;;;1.40;;
3911;SDS011;1971;51.778;10.330;2022-07-04T08:04:12;2.03;;;1.67;;
3911;SDS011;1971;51.778;10.330;2022-07-04T08:06:55;1.43;;;1.23;;
3911;SDS011;1971;51.778;10.330;2022-07-04T08:09:45;1.53;;;1.40;;
3911;SDS011;1971;51.778;10.330;2022-07-04T08:12:18;1.40;;;1.30;;
3911;SDS011;1971;51.778;10.330;2022-07-04T08:14:48;1.77;;;1.50;;
3911;SDS011;1971;51.778;10.330;2022-07-04T08:17:18;1.83;;;1.20;;
3911;SDS011;1971;51.778;10.330;2022-07-04T08:19:49;1.40;;;1.30;;
3911;SDS011;1971;51.778;10.330;2022-07-04T08:22:19;1.73;;;1.63;;
3911;SDS011;1971;51.778;10.330;2022-07-04T08:24:49;1.60;;;1.50;;
3911;SDS011;1971;51.778;10.330;2022-07-04T08:27:26;1.50;;;1.40;;
3911;SDS011;1971;51.778;10.330;2022-07-04T08:29:58;1.70;;;1.60;;
3911;SDS011;1971;51.778;10.330;2022-07-04T08:32:29;3.13;;;1.53;;
3911;SDS011;1971;51.778;10.330;2022-07-04T08:34:59;1.47;;;1.37;;
3911;SDS011;1971;51.778;10.330;2022-07-04T08:37:29;1.67;;;1.40;;
3911;SDS011;1971;51.778;10.330;2022-07-04T08:39:59;2.73;;;1.30;;
3911;SDS011;1971;51.778;10.330;2022-07-04T08:42:36;1.70;;;1.60;;
3911;SDS011;1971;51.778;10.330;2022-07-04T08:45:08;1.47;;;1.37;;
3911;SDS011;1971;51.778;10.330;2022-07-04T08:47:42;1.40;;;1.13;;
3911;SDS011;1971;51.778;10.330;2022-07-04T08:50:16;2.67;;;1.50;;
3911;SDS011;1971;51.778;10.330;2022-07-04T08:52:53;1.60;;;1.23;;
3911;SDS011;1971;51.778;10.330;2022-07-04T08:55:25;1.80;;;1.60;;
3911;SDS011;1971;51.778;10.330;2022-07-04T08:58:12;1.80;;;1.40;;
3911;SDS011;1971;51.778;10.330;2022-07-04T09:00:56;2.10;;;1.47;;
3911;SDS011;1971;51.778;10.330;2022-07-04T09:03:28;2.13;;;1.47;;
3911;SDS011;1971;51.778;10.330;2022-07-04T09:05:59;1.63;;;1.53;;
3911;SDS011;1971;51.778;10.330;2022-07-04T09:08:31;1.60;;;1.50;;
3911;SDS011;1971;51.778;10.330;2022-07-04T09:11:01;1.50;;;1.40;;
3911;SDS011;1971;51.778;10.330;2022-07-04T09:13:35;1.70;;;1.43;;
3911;SDS011;1971;51.778;10.330;2022-07-04T09:16:05;1.30;;;1.20;;
3911;SDS011;1971;51.778;10.330;2022-07-04T09:18:35;1.73;;;1.60;;
3911;SDS011;1971;51.778;10.330;2022-07-04T09:21:06;1.53;;;1.40;;
3911;SDS011;1971;51.778;10.330;2022-07-04T09:23:38;1.87;;;1.77;;
3911;SDS011;1971;51.778;10.330;2022-07-04T09:26:11;1.90;;;1.67;;
3911;SDS011;1971;51.778;10.330;2022-07-04T09:28:50;1.50;;;1.40;;
3911;SDS011;1971;51.778;10.330;2022-07-04T09:31:24;1.30;;;1.20;;
3911;SDS011;1971;51.778;10.330;2022-07-04T09:33:56;1.50;;;1.40;;
3911;SDS011;1971;51.778;10.330;2022-07-04T09:36:29;1.40;;;1.30;;
3911;SDS011;1971;51.778;10.330;2022-07-04T09:39:04;2.50;;;1.30;;
3911;SDS011;1971;51.778;10.330;2022-07-04T09:41:53;2.80;;;1.43;;
3911;SDS011;1971;51.778;10.330;2022-07-04T09:44:27;1.40;;;1.30;;
3911;SDS011;1971;51.778;10.330;2022-07-04T09:47:19;1.40;;;1.40;;
3911;SDS011;1971;51.778;10.330;2022-07-04T09:49:58;3.87;;;1.43;;
3911;SDS011;1971;51.778;10.330;2022-07-04T09:52:29;2.07;;;1.47;;
3911;SDS011;1971;51.778;10.330;2022-07-04T09:54:59;1.60;;;1.50;;
3911;SDS011;1971;51.778;10.330;2022-07-04T09:57:32;2.20;;;1.23;;
3911;SDS011;1971;51.778;10.330;2022-07-04T10:02:52;1.73;;;1.30;;
3911;SDS011;1971;51.778;10.330;2022-07-04T10:05:24;1.40;;;1.30;;
3911;SDS011;1971;51.778;10.330;2022-07-04T10:07:57;1.63;;;1.53;;
3911;SDS011;1971;51.778;10.330;2022-07-04T10:10:28;1.43;;;1.33;;
3911;SDS011;1971;51.778;10.330;2022-07-04T10:13:01;1.27;;;1.17;;
3911;SDS011;1971;51.778;10.330;2022-07-04T10:15:36;2.23;;;1.53;;
3911;SDS011;1971;51.778;10.330;2022-07-04T10:18:07;1.30;;;1.20;;
3911;SDS011;1971;51.778;10.330;2022-07-04T10:20:39;1.60;;;1.40;;
3911;SDS011;1971;51.778;10.330;2022-07-04T10:23:11;4.03;;;0.93;;
3911;SDS011;1971;51.778;10.330;2022-07-04T10:25:45;1.30;;;1.20;;
3911;SDS011;1971;51.778;10.330;2022-07-04T10:28:16;2.30;;;1.50;;
3911;SDS011;1971;51.778;10.330;2022-07-04T10:30:49;1.17;;;1.07;;
3911;SDS011;1971;51.778;10.330;2022-07-04T10:33:22;1.87;;;1.20;;
3911;SDS011;1971;51.778;10.330;2022-07-04T10:35:54;1.57;;;1.47;;
3911;SDS011;1971;51.778;10.330;2022-07-04T10:38:28;1.67;;;1.53;;
3911;SDS011;1971;51.778;10.330;2022-07-04T10:41:01;1.10;;;1.10;;
3911;SDS011;1971;51.778;10.330;2022-07-04T10:43:36;1.17;;;1.10;;
3911;SDS011;1971;51.778;10.330;2022-07-04T10:49:00;1.53;;;1.43;;
3911;SDS011;1971;51.778;10.330;2022-07-04T10:51:32;1.63;;;1.07;;
3911;SDS011;1971;51.778;10.330;2022-07-04T10:54:05;1.30;;;1.20;;
3911;SDS011;1971;51.778;10.330;2022-07-04T10:56:37;1.50;;;1.40;;
3911;SDS011;1971;51.778;10.330;2022-07-04T10:59:10;1.53;;;1.43;;
3911;SDS011;1971;51.778;10.330;2022-07-04T11:01:50;1.90;;;1.10;;
3911;SDS011;1971;51.778;10.330;2022-07-04T11:04:44;1.57;;;1.47;;
3911;SDS011;1971;51.778;10.330;2022-07-04T11:07:16;4.30;;;1.77;;
3911;SDS011;1971;51.778;10.330;2022-07-04T11:10:17;1.40;;;1.30;;
3911;SDS011;1971;51.778;10.330;2022-07-04T11:16:02;1.50;;;1.40;;
3911;SDS011;1971;51.778;10.330;2022-07-04T11:18:46;1.00;;;1.00;;
3911;SDS011;1971;51.778;10.330;2022-07-04T11:21:23;1.20;;;1.10;;
3911;SDS011;1971;51.778;10.330;2022-07-04T11:23:53;1.17;;;1.07;;
3911;SDS011;1971;51.778;10.330;2022-07-04T11:26:25;1.07;;;1.07;;
3911;SDS011;1971;51.778;10.330;2022-07-04T11:28:55;1.90;;;1.37;;
3911;SDS011;1971;51.778;10.330;2022-07-04T11:31:38;1.03;;;1.00;;
3911;SDS011;1971;51.778;10.330;2022-07-04T11:34:12;1.10;;;1.00;;
3911;SDS011;1971;51.778;10.330;2022-07-04T11:36:42;1.73;;;1.30;;
3911;SDS011;1971;51.778;10.330;2022-07-04T11:39:14;1.10;;;1.00;;
3911;SDS011;1971;51.778;10.330;2022-07-04T11:41:46;1.27;;;1.00;;
3911;SDS011;1971;51.778;10.330;2022-07-04T11:44:31;2.23;;;1.40;;
3911;SDS011;1971;51.778;10.330;2022-07-04T11:47:15;1.33;;;1.23;;
3911;SDS011;1971;51.778;10.330;2022-07-04T11:49:50;1.00;;;1.00;;
3911;SDS011;1971;51.778;10.330;2022-07-04T11:52:23;1.43;;;1.17;;
3911;SDS011;1971;51.778;10.330;2022-07-04T11:55:15;0.90;;;0.90;;
3911;SDS011;1971;51.778;10.330;2022-07-04T11:57:48;3.03;;;1.20;;
3911;SDS011;1971;51.778;10.330;2022-07-04T12:00:25;3.40;;;0.90;;
3911;SDS011;1971;51.778;10.330;2022-07-04T12:02:59;1.00;;;0.90;;
3911;SDS011;1971;51.778;10.330;2022-07-04T12:05:32;1.20;;;1.20;;
3911;SDS011;1971;51.778;10.330;2022-07-04T12:08:03;0.93;;;0.90;;
3911;SDS011;1971;51.778;10.330;2022-07-04T12:10:51;1.13;;;1.03;;
3911;SDS011;1971;51.778;10.330;2022-07-04T12:13:21;0.87;;;0.87;;
3911;SDS011;1971;51.778;10.330;2022-07-04T12:15:51;1.47;;;0.90;;
3911;SDS011;1971;51.778;10.330;2022-07-04T12:18:23;0.80;;;0.80;;
3911;SDS011;1971;51.778;10.330;2022-07-04T12:21:10;1.03;;;1.00;;
3911;SDS011;1971;51.778;10.330;2022-07-04T12:23:49;1.20;;;1.10;;
3911;SDS011;1971;51.778;10.330;2022-07-04T12:26:44;1.57;;;1.30;;
3911;SDS011;1971;51.778;10.330;2022-07-04T12:29:22;1.10;;;1.00;;
3911;SDS011;1971;51.778;10.330;2022-07-04T12:31:57;1.57;;;1.07;;
3911;SDS011;1971;51.778;10.330;2022-07-04T12:34:28;1.10;;;1.10;;
3911;SDS011;1971;51.778;10.330;2022-07-04T12:37:06;2.20;;;0.93;;
3911;SDS011;1971;51.778;10.330;2022-07-04T12:39:38;0.80;;;0.80;;
3911;SDS011;1971;51.778;10.330;2022-07-04T12:42:11;3.00;;;1.30;;
3911;SDS011;1971;51.778;10.330;2022-07-04T12:44:44;1.40;;;1.30;;
3911;SDS011;1971;51.778;10.330;2022-07-04T12:47:16;1.63;;;1.00;;
3911;SDS011;1971;51.778;10.330;2022-07-04T12:50:06;1.00;;;1.00;;
3911;SDS011;1971;51.778;10.330;2022-07-04T12:52:39;1.30;;;0.90;;
3911;SDS011;1971;51.778;10.330;2022-07-04T12:55:10;1.57;;;1.27;;
3911;SDS011;1971;51.778;10.330;2022-07-04T12:57:40;2.20;;;0.70;;
3911;SDS011;1971;51.778;10.330;2022-07-04T13:00:10;0.90;;;0.90;;
3911;SDS011;1971;51.778;10.330;2022-07-04T13:03:01;0.80;;;0.70;;
3911;SDS011;1971;51.778;10.330;2022-07-04T13:05:33;2.90;;;1.10;;
3911;SDS011;1971;51.778;10.330;2022-07-04T13:08:07;1.70;;;0.73;;
3911;SDS011;1971;51.778;10.330;2022-07-04T13:10:38;1.00;;;0.90;;
3911;SDS011;1971;51.778;10.330;2022-07-04T13:13:08;0.83;;;0.80;;
3911;SDS011;1971;51.778;10.330;2022-07-04T13:15:35;0.83;;;0.80;;
3911;SDS011;1971;51.778;10.330;2022-07-04T13:18:05;1.27;;;0.80;;
3911;SDS011;1971;51.778;10.330;2022-07-04T13:20:35;1.33;;;1.10;;
3911;SDS011;1971;51.778;10.330;2022-07-04T13:23:07;1.47;;;0.70;;
3911;SDS011;1971;51.778;10.330;2022-07-04T13:25:45;1.10;;;1.00;;
3911;SDS011;1971;51.778;10.330;2022-07-04T13:28:15;0.97;;;0.97;;
3911;SDS011;1971;51.778;10.330;2022-07-04T13:30:45;0.90;;;0.90;;
3911;SDS011;1971;51.778;10.330;2022-07-04T13:33:15;1.53;;;0.93;;
3911;SDS011;1971;51.778;10.330;2022-07-04T13:35:45;0.93;;;0.80;;
3911;SDS011;1971;51.778;10.330;2022-07-04T13:38:18;2.20;;;1.40;;
3911;SDS011;1971;51.778;10.330;2022-07-04T13:40:48;0.93;;;0.93;;
3911;SDS011;1971;51.778;10.330;2022-07-04T13:43:19;1.00;;;1.00;;
3911;SDS011;1971;51.778;10.330;2022-07-04T13:45:49;1.53;;;1.00;;
3911;SDS011;1971;51.778;10.330;2022-07-04T13:48:19;1.27;;;1.13;;
3911;SDS011;1971;51.778;10.330;2022-07-04T13:50:49;0.93;;;0.90;;
3911;SDS011;1971;51.778;10.330;2022-07-04T13:53:22;1.00;;;1.00;;
3911;SDS011;1971;51.778;10.330;2022-07-04T13:55:52;1.73;;;1.03;;
3911;SDS011;1971;51.778;10.330;2022-07-04T13:58:22;1.00;;;1.00;;
3911;SDS011;1971;51.778;10.330;2022-07-04T14:00:52;1.10;;;1.10;;
3911;SDS011;1971;51.778;10.330;2022-07-04T14:03:22;1.10;;;1.10;;
3911;SDS011;1971;51.778;10.330;2022-07-04T14:05:51;0.93;;;0.93;;
3911;SDS011;1971;51.778;10.330;2022-07-04T14:08:24;2.27;;;1.07;;
3911;SDS011;1971;51.778;10.330;2022-07-04T14:10:54;0.70;;;0.70;;
3911;SDS011;1971;51.778;10.330;2022-07-04T14:13:24;0.80;;;0.80;;
3911;SDS011;1971;51.778;10.330;2022-07-04T14:15:54;2.10;;;0.90;;
3911;SDS011;1971;51.778;10.330;2022-07-04T14:18:24;1.10;;;1.10;;
3911;SDS011;1971;51.778;10.330;2022-07-04T14:20:54;1.33;;;0.93;;
3911;SDS011;1971;51.778;10.330;2022-07-04T14:23:26;1.00;;;0.93;;
3911;SDS011;1971;51.778;10.330;2022-07-04T14:26:12;1.03;;;1.00;;
3911;SDS011;1971;51.778;10.330;2022-07-04T14:28:45;1.17;;;1.10;;
3911;SDS011;1971;51.778;10.330;2022-07-04T14:31:16;1.23;;;1.13;;
3911;SDS011;1971;51.778;10.330;2022-07-04T14:33:46;1.67;;;1.07;;
3911;SDS011;1971;51.778;10.330;2022-07-04T14:36:17;1.87;;;0.90;;
3911;SDS011;1971;51.778;10.330;2022-07-04T14:38:50;1.53;;;1.37;;
3911;SDS011;1971;51.778;10.330;2022-07-04T14:41:20;1.00;;;0.90;;
3911;SDS011;1971;51.778;10.330;2022-07-04T14:43:50;1.10;;;1.00;;
3911;SDS011;1971;51.778;10.330;2022-07-04T14:46:22;2.00;;;1.00;;
3911;SDS011;1971;51.778;10.330;2022-07-04T14:48:52;1.20;;;1.07;;
3911;SDS011;1971;51.778;10.330;2022-07-04T14:51:25;1.13;;;1.00;;
3911;SDS011;1971;51.778;10.330;2022-07-04T14:53:57;1.10;;;1.00;;
3911;SDS011;1971;51.778;10.330;2022-07-04T14:56:27;1.03;;;0.93;;
3911;SDS011;1971;51.778;10.330;2022-07-04T14:58:57;1.20;;;1.10;;
3911;SDS011;1971;51.778;10.330;2022-07-04T15:01:27;1.57;;;0.70;;
3911;SDS011;1971;51.778;10.330;2022-07-04T15:03:58;0.90;;;0.90;;
3911;SDS011;1971;51.778;10.330;2022-07-04T15:06:28;0.80;;;0.80;;
3911;SDS011;1971;51.778;10.330;2022-07-04T15:09:01;1.00;;;0.77;;
3911;SDS011;1971;51.778;10.330;2022-07-04T15:11:32;1.13;;;1.03;;
3911;SDS011;1971;51.778;10.330;2022-07-04T15:14:02;1.13;;;0.80;;
3911;SDS011;1971;51.778;10.330;2022-07-04T15:16:33;0.80;;;0.70;;
3911;SDS011;1971;51.778;10.330;2022-07-04T15:19:03;0.77;;;0.70;;
3911;SDS011;1971;51.778;10.330;2022-07-04T15:21:33;3.27;;;0.90;;
3911;SDS011;1971;51.778;10.330;2022-07-04T15:24:18;0.80;;;0.60;;
3911;SDS011;1971;51.778;10.330;2022-07-04T15:26:49;0.80;;;0.77;;
3911;SDS011;1971;51.778;10.330;2022-07-04T15:29:22;0.80;;;0.80;;
3911;SDS011;1971;51.778;10.330;2022-07-04T15:31:56;1.23;;;1.00;;
3911;SDS011;1971;51.778;10.330;2022-07-04T15:34:35;1.93;;;0.83;;
3911;SDS011;1971;51.778;10.330;2022-07-04T15:37:26;1.00;;;1.00;;
3911;SDS011;1971;51.778;10.330;2022-07-04T15:40:01;0.80;;;0.80;;
3911;SDS011;1971;51.778;10.330;2022-07-04T15:42:34;1.17;;;0.70;;
3911;SDS011;1971;51.778;10.330;2022-07-04T15:45:04;0.70;;;0.70;;